UAL777 KORD-KLAS
Flight info
| Callsign | UAL777 |
|---|---|
| Flight time | 3h 39m |
| Altitude | 36000 |
| Route | PEKUE PIPPN ROTTN GADWY GLD DVC TYEGR CHOWW4 |
| Aircraft | A21N/M-SDE2E3FGHIRWXY/LB1 |
Departure
| Time | 2026-05-06 01:08 |
|---|---|
| Airport | Chicago O'Hare International Airport (KORD) |
Arrival
| Time | 2026-05-06 04:47 |
|---|---|
| Airport | Harry Reid International Airport (KLAS) |
| Time | Latitude | Longitude | Altitude | Speed | Heading |
|---|---|---|---|---|---|
| 2026-05-06 00:40 | 41.97932 | -87.90729 | 674 ft | 0 kts | 101° |
| 2026-05-06 00:50 | 41.97932 | -87.90730 | 674 ft | 1 kts | 101° |
| 2026-05-06 00:50 | 41.97939 | -87.90762 | 674 ft | 4 kts | 116° |
| 2026-05-06 00:50 | 41.97954 | -87.90789 | 670 ft | 4 kts | 148° |
| 2026-05-06 00:51 | 41.97977 | -87.90797 | 672 ft | 3 kts | 188° |
| 2026-05-06 00:51 | 41.97979 | -87.90797 | 672 ft | 0 kts | 190° |
| 2026-05-06 00:58 | 41.97973 | -87.90798 | 672 ft | 3 kts | 190° |
| 2026-05-06 00:58 | 41.97934 | -87.90808 | 674 ft | 9 kts | 190° |
| 2026-05-06 00:59 | 41.97872 | -87.90822 | 674 ft | 11 kts | 190° |
| 2026-05-06 00:59 | 41.97794 | -87.90840 | 674 ft | 12 kts | 189° |
| 2026-05-06 00:59 | 41.97707 | -87.90860 | 674 ft | 13 kts | 189° |
| 2026-05-06 00:59 | 41.97612 | -87.90881 | 674 ft | 15 kts | 189° |
| 2026-05-06 01:00 | 41.97541 | -87.90968 | 674 ft | 16 kts | 250° |
| 2026-05-06 01:00 | 41.97468 | -87.91060 | 674 ft | 17 kts | 214° |
| 2026-05-06 01:00 | 41.97363 | -87.91035 | 674 ft | 18 kts | 137° |
| 2026-05-06 01:00 | 41.97268 | -87.90924 | 674 ft | 19 kts | 137° |
| 2026-05-06 01:01 | 41.97187 | -87.90802 | 674 ft | 19 kts | 125° |
| 2026-05-06 01:01 | 41.97146 | -87.90620 | 674 ft | 20 kts | 93° |
| 2026-05-06 01:01 | 41.97137 | -87.90429 | 674 ft | 21 kts | 94° |
| 2026-05-06 01:01 | 41.97138 | -87.90231 | 674 ft | 22 kts | 88° |
| 2026-05-06 01:02 | 41.97135 | -87.90026 | 674 ft | 22 kts | 91° |
| 2026-05-06 01:02 | 41.97160 | -87.89816 | 674 ft | 23 kts | 66° |
| 2026-05-06 01:02 | 41.97185 | -87.89746 | 674 ft | 0 kts | 62° |
| 2026-05-06 01:02 | 41.97188 | -87.89739 | 674 ft | 2 kts | 62° |
| 2026-05-06 01:03 | 41.97201 | -87.89707 | 674 ft | 5 kts | 62° |
| 2026-05-06 01:03 | 41.97223 | -87.89651 | 673 ft | 8 kts | 62° |
| 2026-05-06 01:03 | 41.97237 | -87.89563 | 674 ft | 11 kts | 98° |
| 2026-05-06 01:03 | 41.97193 | -87.89459 | 674 ft | 14 kts | 100° |
| 2026-05-06 01:04 | 41.97194 | -87.89316 | 674 ft | 17 kts | 92° |
| 2026-05-06 01:04 | 41.97194 | -87.89144 | 674 ft | 20 kts | 91° |
| 2026-05-06 01:04 | 41.97195 | -87.88949 | 674 ft | 22 kts | 90° |
| 2026-05-06 01:04 | 41.97195 | -87.88732 | 674 ft | 25 kts | 90° |
| 2026-05-06 01:05 | 41.97196 | -87.88511 | 674 ft | 23 kts | 89° |
| 2026-05-06 01:05 | 41.97197 | -87.88317 | 675 ft | 20 kts | 90° |
| 2026-05-06 01:05 | 41.97197 | -87.88141 | 675 ft | 19 kts | 90° |
| 2026-05-06 01:05 | 41.97126 | -87.88035 | 675 ft | 1 kts | 179° |
| 2026-05-06 01:06 | 41.97119 | -87.88035 | 675 ft | 2 kts | 180° |
| 2026-05-06 01:06 | 41.97101 | -87.88035 | 675 ft | 3 kts | 180° |
| 2026-05-06 01:06 | 41.97072 | -87.88035 | 675 ft | 5 kts | 180° |
| 2026-05-06 01:06 | 41.97031 | -87.88035 | 676 ft | 7 kts | 179° |
| 2026-05-06 01:07 | 41.96975 | -87.88033 | 677 ft | 9 kts | 180° |
| 2026-05-06 01:07 | 41.96914 | -87.88072 | 677 ft | 11 kts | 214° |
| 2026-05-06 01:07 | 41.96758 | -87.88247 | 675 ft | 60 kts | 219° |
| 2026-05-06 01:07 | 41.96266 | -87.88841 | 676 ft | 129 kts | 221° |
| 2026-05-06 01:08 | 41.95457 | -87.89804 | 741 ft | 171 kts | 223° |
| 2026-05-06 01:08 | 41.94544 | -87.90854 | 1211 ft | 181 kts | 224° |
| 2026-05-06 01:08 | 41.93590 | -87.91998 | 1720 ft | 191 kts | 225° |
| 2026-05-06 01:08 | 41.92589 | -87.93229 | 2213 ft | 201 kts | 226° |
| 2026-05-06 01:09 | 41.91541 | -87.94544 | 2718 ft | 210 kts | 227° |
| 2026-05-06 01:09 | 41.90720 | -87.96196 | 3096 ft | 219 kts | 256° |
| 2026-05-06 01:09 | 41.90417 | -87.98262 | 3531 ft | 233 kts | 264° |
| 2026-05-06 01:09 | 41.90176 | -88.00467 | 4012 ft | 247 kts | 264° |
| 2026-05-06 01:10 | 41.89892 | -88.02785 | 4597 ft | 256 kts | 263° |
| 2026-05-06 01:10 | 41.89593 | -88.05159 | 5275 ft | 259 kts | 263° |
| 2026-05-06 01:10 | 41.89300 | -88.07563 | 5996 ft | 262 kts | 263° |
| 2026-05-06 01:10 | 41.89001 | -88.09931 | 6674 ft | 264 kts | 263° |
| 2026-05-06 01:11 | 41.88694 | -88.12362 | 7414 ft | 262 kts | 262° |
| 2026-05-06 01:11 | 41.88453 | -88.14252 | 8009 ft | 261 kts | 261° |
| 2026-05-06 01:11 | 41.88151 | -88.16640 | 8751 ft | 260 kts | 261° |
| 2026-05-06 01:11 | 41.87846 | -88.19039 | 9494 ft | 259 kts | 259° |
| 2026-05-06 01:12 | 41.87579 | -88.21113 | 10081 ft | 259 kts | 259° |
| 2026-05-06 01:12 | 41.87262 | -88.23558 | 10401 ft | 272 kts | 259° |
| 2026-05-06 01:12 | 41.86926 | -88.26128 | 10612 ft | 288 kts | 259° |
| 2026-05-06 01:12 | 41.86563 | -88.28870 | 10828 ft | 302 kts | 260° |
| 2026-05-06 01:13 | 41.86201 | -88.31653 | 11078 ft | 314 kts | 260° |
| 2026-05-06 01:13 | 41.85943 | -88.33616 | 11361 ft | 318 kts | 260° |
| 2026-05-06 01:13 | 41.85440 | -88.37441 | 12041 ft | 321 kts | 260° |
| 2026-05-06 01:13 | 41.85053 | -88.40402 | 12597 ft | 324 kts | 261° |
| 2026-05-06 01:14 | 41.84262 | -88.46397 | 13683 ft | 328 kts | 261° |
| 2026-05-06 01:14 | 41.83862 | -88.49410 | 14171 ft | 330 kts | 261° |
| 2026-05-06 01:14 | 41.83461 | -88.52421 | 14670 ft | 331 kts | 260° |
| 2026-05-06 01:15 | 41.83054 | -88.55478 | 15169 ft | 332 kts | 260° |
| 2026-05-06 01:15 | 41.82670 | -88.58389 | 15650 ft | 333 kts | 260° |
| 2026-05-06 01:15 | 41.82247 | -88.61546 | 16137 ft | 334 kts | 260° |
| 2026-05-06 01:15 | 41.81837 | -88.64619 | 16638 ft | 335 kts | 259° |
| 2026-05-06 01:16 | 41.81561 | -88.66673 | 16956 ft | 336 kts | 259° |
| 2026-05-06 01:16 | 41.81130 | -88.69881 | 17443 ft | 338 kts | 259° |
| 2026-05-06 01:16 | 41.80849 | -88.71969 | 17767 ft | 338 kts | 259° |
| 2026-05-06 01:16 | 41.80429 | -88.75084 | 18227 ft | 340 kts | 259° |
| 2026-05-06 01:17 | 41.80007 | -88.78204 | 18608 ft | 341 kts | 259° |
| 2026-05-06 01:17 | 41.79581 | -88.81333 | 19005 ft | 342 kts | 259° |
| 2026-05-06 01:17 | 41.79165 | -88.84474 | 19386 ft | 343 kts | 259° |
| 2026-05-06 01:17 | 41.78759 | -88.87633 | 19761 ft | 344 kts | 259° |
| 2026-05-06 01:18 | 41.78353 | -88.90793 | 20127 ft | 346 kts | 259° |
| 2026-05-06 01:18 | 41.77939 | -88.93972 | 20489 ft | 347 kts | 259° |
| 2026-05-06 01:18 | 41.77513 | -88.97163 | 20845 ft | 348 kts | 258° |
| 2026-05-06 01:18 | 41.77086 | -89.00362 | 21201 ft | 349 kts | 258° |
| 2026-05-06 01:19 | 41.76666 | -89.03564 | 21533 ft | 350 kts | 259° |
| 2026-05-06 01:19 | 41.76253 | -89.06725 | 21873 ft | 351 kts | 258° |
| 2026-05-06 01:19 | 41.75834 | -89.09871 | 22175 ft | 353 kts | 258° |
| 2026-05-06 01:19 | 41.75409 | -89.13130 | 22496 ft | 353 kts | 258° |
| 2026-05-06 01:20 | 41.74973 | -89.16408 | 22772 ft | 354 kts | 258° |
| 2026-05-06 01:20 | 41.74530 | -89.19671 | 23046 ft | 356 kts | 258° |
| 2026-05-06 01:20 | 41.74087 | -89.22936 | 23301 ft | 357 kts | 258° |
| 2026-05-06 01:20 | 41.73655 | -89.26213 | 23549 ft | 358 kts | 258° |
| 2026-05-06 01:21 | 41.73221 | -89.29507 | 23772 ft | 359 kts | 258° |
| 2026-05-06 01:21 | 41.72785 | -89.32802 | 23997 ft | 360 kts | 258° |
| 2026-05-06 01:21 | 41.72342 | -89.36106 | 24219 ft | 360 kts | 258° |
| 2026-05-06 01:21 | 41.71894 | -89.39402 | 24438 ft | 361 kts | 258° |
| 2026-05-06 01:22 | 41.71447 | -89.42708 | 24658 ft | 361 kts | 258° |
| 2026-05-06 01:22 | 41.70998 | -89.46035 | 24878 ft | 362 kts | 258° |
| 2026-05-06 01:22 | 41.70557 | -89.49304 | 25093 ft | 362 kts | 258° |
| 2026-05-06 01:22 | 41.70104 | -89.52623 | 25297 ft | 363 kts | 258° |
| 2026-05-06 01:23 | 41.69644 | -89.55948 | 25508 ft | 363 kts | 257° |
| 2026-05-06 01:23 | 41.69186 | -89.59266 | 25704 ft | 364 kts | 257° |
| 2026-05-06 01:23 | 41.68783 | -89.62198 | 25867 ft | 364 kts | 258° |
| 2026-05-06 01:23 | 41.68329 | -89.65532 | 26066 ft | 365 kts | 258° |
| 2026-05-06 01:24 | 41.67866 | -89.68880 | 26252 ft | 365 kts | 257° |
| 2026-05-06 01:24 | 41.67399 | -89.72225 | 26433 ft | 366 kts | 257° |
| 2026-05-06 01:24 | 41.66884 | -89.75561 | 26607 ft | 366 kts | 256° |
| 2026-05-06 01:24 | 41.66357 | -89.78865 | 26779 ft | 367 kts | 256° |
| 2026-05-06 01:25 | 41.65811 | -89.82254 | 26948 ft | 368 kts | 256° |
| 2026-05-06 01:25 | 41.65272 | -89.85600 | 27122 ft | 368 kts | 256° |
| 2026-05-06 01:25 | 41.64727 | -89.88958 | 27289 ft | 369 kts | 256° |
| 2026-05-06 01:25 | 41.64185 | -89.92314 | 27446 ft | 369 kts | 256° |
| 2026-05-06 01:26 | 41.63644 | -89.95678 | 27613 ft | 370 kts | 256° |
| 2026-05-06 01:26 | 41.63097 | -89.99042 | 27779 ft | 370 kts | 256° |
| 2026-05-06 01:26 | 41.62551 | -90.02388 | 27942 ft | 371 kts | 256° |
| 2026-05-06 01:26 | 41.62005 | -90.05726 | 28093 ft | 371 kts | 256° |
| 2026-05-06 01:27 | 41.61454 | -90.09100 | 28236 ft | 372 kts | 256° |
| 2026-05-06 01:27 | 41.60892 | -90.12477 | 28379 ft | 373 kts | 256° |
| 2026-05-06 01:27 | 41.60335 | -90.15868 | 28528 ft | 373 kts | 256° |
| 2026-05-06 01:27 | 41.59782 | -90.19254 | 28670 ft | 374 kts | 256° |
| 2026-05-06 01:28 | 41.59224 | -90.22641 | 28791 ft | 374 kts | 256° |
| 2026-05-06 01:28 | 41.58665 | -90.26041 | 28923 ft | 374 kts | 256° |
| 2026-05-06 01:28 | 41.58103 | -90.29438 | 29044 ft | 375 kts | 256° |
| 2026-05-06 01:28 | 41.57535 | -90.32885 | 29154 ft | 375 kts | 256° |
| 2026-05-06 01:29 | 41.56978 | -90.36247 | 29278 ft | 376 kts | 256° |
| 2026-05-06 01:29 | 41.56400 | -90.39701 | 29394 ft | 376 kts | 256° |
| 2026-05-06 01:29 | 41.55826 | -90.43097 | 29515 ft | 376 kts | 255° |
| 2026-05-06 01:29 | 41.55243 | -90.46480 | 29643 ft | 376 kts | 255° |
| 2026-05-06 01:30 | 41.54675 | -90.49883 | 29773 ft | 375 kts | 255° |
| 2026-05-06 01:30 | 41.54106 | -90.53279 | 29897 ft | 375 kts | 255° |
| 2026-05-06 01:30 | 41.53564 | -90.56500 | 29998 ft | 375 kts | 255° |
| 2026-05-06 01:30 | 41.53003 | -90.59887 | 30113 ft | 374 kts | 256° |
| 2026-05-06 01:31 | 41.52441 | -90.63275 | 30227 ft | 373 kts | 256° |
| 2026-05-06 01:31 | 41.51880 | -90.66640 | 30367 ft | 371 kts | 256° |
| 2026-05-06 01:31 | 41.51312 | -90.70002 | 30489 ft | 370 kts | 256° |
| 2026-05-06 01:31 | 41.50741 | -90.73334 | 30615 ft | 368 kts | 256° |
| 2026-05-06 01:32 | 41.50177 | -90.76651 | 30741 ft | 367 kts | 256° |
| 2026-05-06 01:32 | 41.49622 | -90.79923 | 30853 ft | 366 kts | 256° |
| 2026-05-06 01:32 | 41.49053 | -90.83272 | 30965 ft | 364 kts | 256° |
| 2026-05-06 01:32 | 41.48501 | -90.86519 | 31067 ft | 363 kts | 256° |
| 2026-05-06 01:33 | 41.47944 | -90.89752 | 31184 ft | 361 kts | 256° |
| 2026-05-06 01:33 | 41.47385 | -90.93008 | 31283 ft | 360 kts | 256° |
| 2026-05-06 01:33 | 41.46250 | -90.99472 | 31456 ft | 358 kts | 256° |
| 2026-05-06 01:34 | 41.45102 | -91.05955 | 31643 ft | 356 kts | 256° |
| 2026-05-06 01:34 | 41.43990 | -91.12348 | 31817 ft | 354 kts | 257° |
| 2026-05-06 01:35 | 41.42921 | -91.18708 | 31944 ft | 353 kts | 256° |
| 2026-05-06 01:35 | 41.41783 | -91.25085 | 32108 ft | 351 kts | 257° |
| 2026-05-06 01:36 | 41.40668 | -91.31397 | 32244 ft | 349 kts | 256° |
| 2026-05-06 01:36 | 41.39582 | -91.37636 | 32355 ft | 347 kts | 257° |
| 2026-05-06 01:37 | 41.38513 | -91.43896 | 32465 ft | 346 kts | 257° |
| 2026-05-06 01:37 | 41.37479 | -91.49777 | 32553 ft | 345 kts | 257° |
| 2026-05-06 01:38 | 41.36370 | -91.55989 | 32650 ft | 344 kts | 256° |
| 2026-05-06 01:38 | 41.35266 | -91.62178 | 32756 ft | 343 kts | 257° |
| 2026-05-06 01:39 | 41.34168 | -91.68351 | 32837 ft | 342 kts | 257° |
| 2026-05-06 01:39 | 41.33074 | -91.74465 | 32925 ft | 341 kts | 257° |
| 2026-05-06 01:40 | 41.31969 | -91.80598 | 33018 ft | 340 kts | 257° |
| 2026-05-06 01:40 | 41.30839 | -91.86688 | 33107 ft | 339 kts | 256° |
| 2026-05-06 01:41 | 41.29734 | -91.92779 | 33175 ft | 338 kts | 257° |
| 2026-05-06 01:41 | 41.28659 | -91.98865 | 33271 ft | 337 kts | 257° |
| 2026-05-06 01:42 | 41.27570 | -92.04923 | 33332 ft | 336 kts | 256° |
| 2026-05-06 01:42 | 41.26459 | -92.10956 | 33383 ft | 336 kts | 256° |
| 2026-05-06 01:43 | 41.25361 | -92.16981 | 33431 ft | 335 kts | 256° |
| 2026-05-06 01:43 | 41.24255 | -92.23013 | 33470 ft | 336 kts | 256° |
| 2026-05-06 01:44 | 41.23146 | -92.29034 | 33539 ft | 335 kts | 256° |
| 2026-05-06 01:44 | 41.22037 | -92.35021 | 33597 ft | 334 kts | 256° |
| 2026-05-06 01:45 | 41.20950 | -92.40833 | 33641 ft | 334 kts | 256° |
| 2026-05-06 01:45 | 41.19840 | -92.46820 | 33672 ft | 334 kts | 256° |
| 2026-05-06 01:46 | 41.18721 | -92.52800 | 33704 ft | 333 kts | 256° |
| 2026-05-06 01:46 | 41.17606 | -92.58774 | 33746 ft | 333 kts | 256° |
| 2026-05-06 01:47 | 41.16484 | -92.64730 | 33790 ft | 333 kts | 256° |
| 2026-05-06 01:47 | 41.15361 | -92.70659 | 33848 ft | 332 kts | 256° |
| 2026-05-06 01:48 | 41.14238 | -92.76598 | 33879 ft | 332 kts | 256° |
| 2026-05-06 01:48 | 41.13113 | -92.82528 | 33938 ft | 331 kts | 256° |
| 2026-05-06 01:49 | 41.11986 | -92.88430 | 33994 ft | 330 kts | 256° |
| 2026-05-06 01:49 | 41.11052 | -92.93360 | 34005 ft | 330 kts | 256° |
| 2026-05-06 01:50 | 41.09895 | -92.99249 | 33998 ft | 330 kts | 256° |
| 2026-05-06 01:50 | 41.08745 | -93.05148 | 33989 ft | 331 kts | 256° |
| 2026-05-06 01:51 | 41.07618 | -93.11007 | 33999 ft | 331 kts | 256° |
| 2026-05-06 01:51 | 41.06470 | -93.16923 | 34019 ft | 331 kts | 256° |
| 2026-05-06 01:52 | 41.05323 | -93.22822 | 34040 ft | 331 kts | 256° |
| 2026-05-06 01:52 | 41.04175 | -93.28720 | 34061 ft | 330 kts | 255° |
| 2026-05-06 01:53 | 41.03040 | -93.34615 | 34084 ft | 330 kts | 256° |
| 2026-05-06 01:53 | 41.01915 | -93.40517 | 34094 ft | 330 kts | 256° |
| 2026-05-06 01:54 | 41.00773 | -93.46411 | 34100 ft | 331 kts | 255° |
| 2026-05-06 01:54 | 40.99630 | -93.52289 | 34107 ft | 331 kts | 256° |
| 2026-05-06 01:55 | 40.98696 | -93.58261 | 34141 ft | 331 kts | 257° |
| 2026-05-06 01:55 | 40.97781 | -93.64235 | 34154 ft | 331 kts | 257° |
| 2026-05-06 01:56 | 40.96857 | -93.70200 | 34168 ft | 331 kts | 258° |
| 2026-05-06 01:56 | 40.95965 | -93.76141 | 34176 ft | 331 kts | 257° |
| 2026-05-06 01:57 | 40.95044 | -93.82113 | 34192 ft | 331 kts | 257° |
| 2026-05-06 01:57 | 40.94123 | -93.88100 | 34229 ft | 331 kts | 257° |
| 2026-05-06 01:58 | 40.93194 | -93.94064 | 34259 ft | 331 kts | 257° |
| 2026-05-06 01:58 | 40.92266 | -94.00030 | 34279 ft | 331 kts | 257° |
| 2026-05-06 01:59 | 40.91333 | -94.05998 | 34296 ft | 332 kts | 257° |
| 2026-05-06 01:59 | 40.90400 | -94.11940 | 34319 ft | 331 kts | 257° |
| 2026-05-06 02:00 | 40.89461 | -94.17911 | 34337 ft | 332 kts | 257° |
| 2026-05-06 02:00 | 40.88513 | -94.23884 | 34373 ft | 332 kts | 257° |
| 2026-05-06 02:01 | 40.87565 | -94.29844 | 34405 ft | 332 kts | 257° |
| 2026-05-06 02:01 | 40.86617 | -94.35801 | 34433 ft | 332 kts | 257° |
| 2026-05-06 02:02 | 40.85668 | -94.41761 | 34468 ft | 331 kts | 257° |
| 2026-05-06 02:02 | 40.84713 | -94.47719 | 34515 ft | 331 kts | 257° |
| 2026-05-06 02:03 | 40.83757 | -94.53666 | 34543 ft | 331 kts | 257° |
| 2026-05-06 02:03 | 40.82793 | -94.59605 | 34572 ft | 331 kts | 257° |
| 2026-05-06 02:04 | 40.81836 | -94.65547 | 34601 ft | 331 kts | 257° |
| 2026-05-06 02:04 | 40.80874 | -94.71445 | 34635 ft | 331 kts | 257° |
| 2026-05-06 02:05 | 40.79895 | -94.77408 | 34665 ft | 331 kts | 256° |
| 2026-05-06 02:05 | 40.78925 | -94.83353 | 34675 ft | 332 kts | 257° |
| 2026-05-06 02:06 | 40.77953 | -94.89304 | 34690 ft | 332 kts | 257° |
| 2026-05-06 02:06 | 40.76959 | -94.95269 | 34725 ft | 332 kts | 257° |
| 2026-05-06 02:07 | 40.75978 | -95.01215 | 34766 ft | 332 kts | 257° |
| 2026-05-06 02:07 | 40.74995 | -95.07159 | 34787 ft | 332 kts | 257° |
| 2026-05-06 02:08 | 40.74008 | -95.13110 | 34790 ft | 332 kts | 256° |
| 2026-05-06 02:08 | 40.72996 | -95.19057 | 34793 ft | 332 kts | 256° |
| 2026-05-06 02:09 | 40.71984 | -95.24975 | 34777 ft | 333 kts | 256° |
| 2026-05-06 02:09 | 40.71001 | -95.30929 | 34782 ft | 334 kts | 257° |
| 2026-05-06 02:10 | 40.70011 | -95.36908 | 34804 ft | 334 kts | 256° |
| 2026-05-06 02:10 | 40.69004 | -95.42873 | 34826 ft | 334 kts | 256° |
| 2026-05-06 02:11 | 40.67989 | -95.48856 | 34845 ft | 334 kts | 256° |
| 2026-05-06 02:11 | 40.66975 | -95.54826 | 34876 ft | 334 kts | 256° |
| 2026-05-06 02:12 | 40.65954 | -95.60803 | 34893 ft | 334 kts | 256° |
| 2026-05-06 02:12 | 40.64926 | -95.66791 | 34938 ft | 335 kts | 256° |
| 2026-05-06 02:13 | 40.63896 | -95.72774 | 34980 ft | 335 kts | 256° |
| 2026-05-06 02:13 | 40.62863 | -95.78752 | 35009 ft | 335 kts | 256° |
| 2026-05-06 02:14 | 40.61830 | -95.84731 | 35048 ft | 335 kts | 256° |
| 2026-05-06 02:14 | 40.60791 | -95.90709 | 35072 ft | 336 kts | 256° |
| 2026-05-06 02:15 | 40.59746 | -95.96695 | 35101 ft | 336 kts | 256° |
| 2026-05-06 02:15 | 40.58697 | -96.02687 | 35140 ft | 336 kts | 256° |
| 2026-05-06 02:16 | 40.57643 | -96.08687 | 35177 ft | 336 kts | 256° |
| 2026-05-06 02:16 | 40.56589 | -96.14685 | 35216 ft | 336 kts | 256° |
| 2026-05-06 02:17 | 40.55535 | -96.20643 | 35253 ft | 337 kts | 256° |
| 2026-05-06 02:17 | 40.54474 | -96.26630 | 35276 ft | 337 kts | 256° |
| 2026-05-06 02:18 | 40.53404 | -96.32630 | 35310 ft | 337 kts | 256° |
| 2026-05-06 02:18 | 40.52326 | -96.38640 | 35331 ft | 337 kts | 256° |
| 2026-05-06 02:19 | 40.51252 | -96.44650 | 35346 ft | 338 kts | 256° |
| 2026-05-06 02:19 | 40.50178 | -96.50660 | 35355 ft | 339 kts | 256° |
| 2026-05-06 02:20 | 40.48545 | -96.59718 | 35375 ft | 339 kts | 256° |
| 2026-05-06 02:21 | 40.47450 | -96.65757 | 35426 ft | 340 kts | 255° |
| 2026-05-06 02:21 | 40.46353 | -96.71777 | 35457 ft | 340 kts | 256° |
| 2026-05-06 02:22 | 40.45253 | -96.77836 | 35494 ft | 340 kts | 255° |
| 2026-05-06 02:22 | 40.44153 | -96.83874 | 35525 ft | 340 kts | 255° |
| 2026-05-06 02:23 | 40.43037 | -96.89926 | 35556 ft | 341 kts | 255° |
| 2026-05-06 02:23 | 40.41931 | -96.95979 | 35595 ft | 341 kts | 255° |
| 2026-05-06 02:24 | 40.40822 | -97.01981 | 35627 ft | 341 kts | 255° |
| 2026-05-06 02:24 | 40.39695 | -97.08069 | 35666 ft | 341 kts | 255° |
| 2026-05-06 02:25 | 40.38574 | -97.14100 | 35701 ft | 341 kts | 255° |
| 2026-05-06 02:25 | 40.37439 | -97.20087 | 35742 ft | 340 kts | 255° |
| 2026-05-06 02:26 | 40.36435 | -97.25123 | 35770 ft | 340 kts | 255° |
| 2026-05-06 02:26 | 40.35045 | -97.32109 | 35797 ft | 340 kts | 255° |
| 2026-05-06 02:27 | 40.34046 | -97.37139 | 35843 ft | 340 kts | 255° |
| 2026-05-06 02:27 | 40.32851 | -97.43139 | 35838 ft | 340 kts | 255° |
| 2026-05-06 02:28 | 40.31646 | -97.49153 | 35816 ft | 341 kts | 255° |
| 2026-05-06 02:28 | 40.30440 | -97.55168 | 35819 ft | 342 kts | 255° |
| 2026-05-06 02:29 | 40.29237 | -97.61153 | 35841 ft | 342 kts | 255° |
| 2026-05-06 02:29 | 40.28022 | -97.67178 | 35855 ft | 342 kts | 254° |
| 2026-05-06 02:30 | 40.26807 | -97.73190 | 35864 ft | 342 kts | 254° |
| 2026-05-06 02:30 | 40.25586 | -97.79213 | 35861 ft | 343 kts | 254° |
| 2026-05-06 02:31 | 40.24356 | -97.85258 | 35862 ft | 343 kts | 254° |
| 2026-05-06 02:31 | 40.23125 | -97.91295 | 35876 ft | 343 kts | 254° |
| 2026-05-06 02:32 | 40.21889 | -97.97330 | 35910 ft | 343 kts | 254° |
| 2026-05-06 02:32 | 40.20651 | -98.03350 | 35948 ft | 344 kts | 254° |
| 2026-05-06 02:33 | 40.19404 | -98.09425 | 35971 ft | 345 kts | 254° |
| 2026-05-06 02:33 | 40.18991 | -98.11429 | 35987 ft | 345 kts | 254° |
| 2026-05-06 02:34 | 40.16899 | -98.21536 | 36028 ft | 347 kts | 254° |
| 2026-05-06 02:34 | 40.15634 | -98.27630 | 36027 ft | 348 kts | 254° |
| 2026-05-06 02:35 | 40.14366 | -98.33727 | 36031 ft | 349 kts | 254° |
| 2026-05-06 02:35 | 40.13087 | -98.39840 | 36035 ft | 350 kts | 254° |
| 2026-05-06 02:36 | 40.11804 | -98.45967 | 36031 ft | 348 kts | 254° |
| 2026-05-06 02:36 | 40.10516 | -98.52096 | 36035 ft | 350 kts | 254° |
| 2026-05-06 02:37 | 40.09231 | -98.58214 | 36034 ft | 349 kts | 254° |
| 2026-05-06 02:37 | 40.07932 | -98.64349 | 36040 ft | 351 kts | 254° |
| 2026-05-06 02:38 | 40.06637 | -98.70472 | 36038 ft | 350 kts | 254° |
| 2026-05-06 02:38 | 40.05331 | -98.76621 | 36043 ft | 350 kts | 254° |
| 2026-05-06 02:39 | 40.04033 | -98.82712 | 36043 ft | 351 kts | 254° |
| 2026-05-06 02:39 | 40.02716 | -98.88872 | 36046 ft | 351 kts | 254° |
| 2026-05-06 02:40 | 40.01446 | -98.94797 | 36047 ft | 351 kts | 254° |
| 2026-05-06 02:40 | 40.00131 | -99.00922 | 36051 ft | 351 kts | 254° |
| 2026-05-06 02:41 | 39.98811 | -99.07047 | 36051 ft | 351 kts | 254° |
| 2026-05-06 02:41 | 39.97485 | -99.13185 | 36056 ft | 351 kts | 254° |
| 2026-05-06 02:42 | 39.96159 | -99.19305 | 36060 ft | 352 kts | 254° |
| 2026-05-06 02:42 | 39.94828 | -99.25431 | 36057 ft | 351 kts | 254° |
| 2026-05-06 02:43 | 39.93494 | -99.31557 | 36058 ft | 350 kts | 254° |
| 2026-05-06 02:43 | 39.92154 | -99.37678 | 36059 ft | 352 kts | 254° |
| 2026-05-06 02:44 | 39.90814 | -99.43792 | 36058 ft | 352 kts | 254° |
| 2026-05-06 02:44 | 39.89466 | -99.49927 | 36062 ft | 352 kts | 254° |
| 2026-05-06 02:45 | 39.88123 | -99.56019 | 36060 ft | 352 kts | 253° |
| 2026-05-06 02:45 | 39.86768 | -99.62149 | 36055 ft | 351 kts | 254° |
| 2026-05-06 02:46 | 39.85421 | -99.68240 | 36068 ft | 352 kts | 253° |
| 2026-05-06 02:46 | 39.84056 | -99.74375 | 36073 ft | 353 kts | 253° |
| 2026-05-06 02:47 | 39.82695 | -99.80489 | 36066 ft | 353 kts | 253° |
| 2026-05-06 02:47 | 39.81324 | -99.86621 | 36068 ft | 352 kts | 253° |
| 2026-05-06 02:48 | 39.79953 | -99.92743 | 36076 ft | 352 kts | 253° |
| 2026-05-06 02:48 | 39.78578 | -99.98852 | 36066 ft | 352 kts | 253° |
| 2026-05-06 02:49 | 39.77202 | -100.04969 | 36074 ft | 352 kts | 253° |
| 2026-05-06 02:49 | 39.75825 | -100.11067 | 36068 ft | 352 kts | 253° |
| 2026-05-06 02:50 | 39.74447 | -100.17151 | 36076 ft | 352 kts | 253° |
| 2026-05-06 02:50 | 39.73084 | -100.23157 | 36080 ft | 352 kts | 253° |
| 2026-05-06 02:51 | 39.71698 | -100.29245 | 36077 ft | 351 kts | 253° |
| 2026-05-06 02:51 | 39.70318 | -100.35282 | 36078 ft | 352 kts | 253° |
| 2026-05-06 02:52 | 39.68924 | -100.41370 | 36076 ft | 352 kts | 253° |
| 2026-05-06 02:52 | 39.67526 | -100.47458 | 36079 ft | 352 kts | 253° |
| 2026-05-06 02:53 | 39.66124 | -100.53536 | 36075 ft | 352 kts | 253° |
| 2026-05-06 02:53 | 39.64726 | -100.59607 | 36070 ft | 352 kts | 253° |
| 2026-05-06 02:54 | 39.63318 | -100.65693 | 36082 ft | 351 kts | 253° |
| 2026-05-06 02:54 | 39.61908 | -100.71774 | 36073 ft | 352 kts | 253° |
| 2026-05-06 02:55 | 39.60513 | -100.77774 | 36079 ft | 352 kts | 253° |
| 2026-05-06 02:55 | 39.59098 | -100.83846 | 36069 ft | 352 kts | 253° |
| 2026-05-06 02:56 | 39.57674 | -100.89924 | 36076 ft | 352 kts | 253° |
| 2026-05-06 02:56 | 39.56253 | -100.95969 | 36075 ft | 353 kts | 253° |
| 2026-05-06 02:57 | 39.54830 | -101.02038 | 36077 ft | 353 kts | 253° |
| 2026-05-06 02:57 | 39.53413 | -101.08055 | 36074 ft | 352 kts | 253° |
| 2026-05-06 02:58 | 39.51969 | -101.14164 | 36075 ft | 352 kts | 253° |
| 2026-05-06 02:58 | 39.50540 | -101.20185 | 36075 ft | 352 kts | 253° |
| 2026-05-06 02:59 | 39.49117 | -101.26182 | 36053 ft | 351 kts | 253° |
| 2026-05-06 02:59 | 39.47672 | -101.32245 | 36061 ft | 352 kts | 253° |
| 2026-05-06 03:00 | 39.46237 | -101.38262 | 36062 ft | 352 kts | 252° |
| 2026-05-06 03:00 | 39.44785 | -101.44325 | 36054 ft | 352 kts | 252° |
| 2026-05-06 03:01 | 39.43335 | -101.50370 | 36059 ft | 352 kts | 252° |
| 2026-05-06 03:01 | 39.41874 | -101.56432 | 36062 ft | 353 kts | 252° |
| 2026-05-06 03:02 | 39.40416 | -101.62478 | 36058 ft | 352 kts | 252° |
| 2026-05-06 03:02 | 39.38957 | -101.68532 | 36060 ft | 353 kts | 253° |
| 2026-05-06 03:03 | 39.37793 | -101.74577 | 36061 ft | 353 kts | 256° |
| 2026-05-06 03:03 | 39.36648 | -101.80849 | 36056 ft | 355 kts | 255° |
| 2026-05-06 03:04 | 39.35505 | -101.87055 | 36059 ft | 356 kts | 255° |
| 2026-05-06 03:04 | 39.34551 | -101.92212 | 36058 ft | 355 kts | 255° |
| 2026-05-06 03:05 | 39.33213 | -101.99439 | 36060 ft | 356 kts | 255° |
| 2026-05-06 03:05 | 39.32253 | -102.04605 | 36058 ft | 356 kts | 255° |
| 2026-05-06 03:06 | 39.31087 | -102.10839 | 36061 ft | 357 kts | 255° |
| 2026-05-06 03:06 | 39.29924 | -102.17064 | 36057 ft | 357 kts | 255° |
| 2026-05-06 03:07 | 39.28753 | -102.23303 | 36058 ft | 357 kts | 255° |
| 2026-05-06 03:07 | 39.27578 | -102.29540 | 36058 ft | 357 kts | 255° |
| 2026-05-06 03:08 | 39.26400 | -102.35773 | 36057 ft | 358 kts | 255° |
| 2026-05-06 03:08 | 39.25214 | -102.42027 | 36058 ft | 359 kts | 255° |
| 2026-05-06 03:09 | 39.24023 | -102.48291 | 36059 ft | 359 kts | 255° |
| 2026-05-06 03:09 | 39.22828 | -102.54551 | 36054 ft | 360 kts | 255° |
| 2026-05-06 03:10 | 39.21632 | -102.60802 | 36047 ft | 360 kts | 255° |
| 2026-05-06 03:10 | 39.20428 | -102.67076 | 36048 ft | 361 kts | 255° |
| 2026-05-06 03:11 | 39.19220 | -102.73353 | 36042 ft | 361 kts | 255° |
| 2026-05-06 03:11 | 39.18003 | -102.79647 | 36039 ft | 361 kts | 254° |
| 2026-05-06 03:12 | 39.16786 | -102.85933 | 36039 ft | 362 kts | 254° |
| 2026-05-06 03:12 | 39.15562 | -102.92230 | 36030 ft | 362 kts | 254° |
| 2026-05-06 03:13 | 39.14334 | -102.98529 | 36033 ft | 363 kts | 254° |
| 2026-05-06 03:13 | 39.13100 | -103.04840 | 36021 ft | 364 kts | 254° |
| 2026-05-06 03:14 | 39.11859 | -103.11157 | 36015 ft | 364 kts | 254° |
| 2026-05-06 03:14 | 39.10615 | -103.17482 | 36014 ft | 364 kts | 254° |
| 2026-05-06 03:15 | 39.09368 | -103.23802 | 36009 ft | 365 kts | 254° |
| 2026-05-06 03:15 | 39.08112 | -103.30143 | 36011 ft | 366 kts | 254° |
| 2026-05-06 03:16 | 39.06851 | -103.36490 | 36012 ft | 366 kts | 254° |
| 2026-05-06 03:16 | 39.05592 | -103.42808 | 36011 ft | 367 kts | 254° |
| 2026-05-06 03:17 | 39.04318 | -103.49174 | 36010 ft | 368 kts | 254° |
| 2026-05-06 03:17 | 39.03038 | -103.55557 | 36013 ft | 368 kts | 254° |
| 2026-05-06 03:18 | 39.01756 | -103.61926 | 36009 ft | 369 kts | 254° |
| 2026-05-06 03:18 | 39.00466 | -103.68324 | 36009 ft | 370 kts | 254° |
| 2026-05-06 03:19 | 38.99173 | -103.74726 | 36002 ft | 370 kts | 254° |
| 2026-05-06 03:19 | 38.97871 | -103.81130 | 36001 ft | 371 kts | 254° |
| 2026-05-06 03:20 | 38.95912 | -103.90755 | 35992 ft | 372 kts | 254° |
| 2026-05-06 03:20 | 38.94598 | -103.97172 | 35991 ft | 373 kts | 254° |
| 2026-05-06 03:21 | 38.93272 | -104.03631 | 35985 ft | 374 kts | 254° |
| 2026-05-06 03:21 | 38.91943 | -104.10099 | 35983 ft | 374 kts | 254° |
| 2026-05-06 03:22 | 38.90609 | -104.16570 | 35988 ft | 375 kts | 254° |
| 2026-05-06 03:22 | 38.89267 | -104.23050 | 35999 ft | 376 kts | 254° |
| 2026-05-06 03:23 | 38.87911 | -104.29579 | 36010 ft | 377 kts | 254° |
| 2026-05-06 03:23 | 38.86555 | -104.36081 | 36019 ft | 377 kts | 254° |
| 2026-05-06 03:24 | 38.85195 | -104.42595 | 36025 ft | 378 kts | 254° |
| 2026-05-06 03:24 | 38.83829 | -104.49111 | 36025 ft | 379 kts | 254° |
| 2026-05-06 03:25 | 38.82457 | -104.55637 | 36036 ft | 380 kts | 254° |
| 2026-05-06 03:25 | 38.81077 | -104.62190 | 36038 ft | 381 kts | 254° |
| 2026-05-06 03:26 | 38.79686 | -104.68760 | 36040 ft | 382 kts | 254° |
| 2026-05-06 03:26 | 38.78290 | -104.75345 | 36041 ft | 382 kts | 254° |
| 2026-05-06 03:27 | 38.76889 | -104.81930 | 36037 ft | 383 kts | 254° |
| 2026-05-06 03:27 | 38.75480 | -104.88531 | 36024 ft | 384 kts | 254° |
| 2026-05-06 03:28 | 38.74067 | -104.95135 | 35997 ft | 385 kts | 254° |
| 2026-05-06 03:28 | 38.72642 | -105.01763 | 35975 ft | 385 kts | 253° |
| 2026-05-06 03:29 | 38.71208 | -105.08394 | 35945 ft | 387 kts | 254° |
| 2026-05-06 03:29 | 38.69778 | -105.15004 | 35907 ft | 387 kts | 254° |
| 2026-05-06 03:30 | 38.68335 | -105.21662 | 35886 ft | 388 kts | 253° |
| 2026-05-06 03:30 | 38.66896 | -105.28290 | 35883 ft | 389 kts | 254° |
| 2026-05-06 03:31 | 38.65443 | -105.34958 | 35885 ft | 390 kts | 253° |
| 2026-05-06 03:31 | 38.63978 | -105.41645 | 35882 ft | 391 kts | 253° |
| 2026-05-06 03:32 | 38.62506 | -105.48352 | 35878 ft | 392 kts | 253° |
| 2026-05-06 03:32 | 38.61025 | -105.55099 | 35874 ft | 393 kts | 254° |
| 2026-05-06 03:33 | 38.59547 | -105.61830 | 35875 ft | 394 kts | 253° |
| 2026-05-06 03:33 | 38.58052 | -105.68591 | 35886 ft | 395 kts | 253° |
| 2026-05-06 03:34 | 38.56551 | -105.75352 | 35900 ft | 396 kts | 253° |
| 2026-05-06 03:34 | 38.55053 | -105.82089 | 35919 ft | 396 kts | 253° |
| 2026-05-06 03:35 | 38.53538 | -105.88866 | 35938 ft | 397 kts | 253° |
| 2026-05-06 03:35 | 38.52009 | -105.95659 | 35960 ft | 397 kts | 253° |
| 2026-05-06 03:36 | 38.50498 | -106.02401 | 35957 ft | 398 kts | 253° |
| 2026-05-06 03:36 | 38.48968 | -106.09191 | 35953 ft | 399 kts | 253° |
| 2026-05-06 03:37 | 38.47431 | -106.16009 | 35946 ft | 400 kts | 253° |
| 2026-05-06 03:37 | 38.45881 | -106.22852 | 35903 ft | 401 kts | 253° |
| 2026-05-06 03:38 | 38.44325 | -106.29689 | 35865 ft | 402 kts | 253° |
| 2026-05-06 03:38 | 38.42758 | -106.36548 | 35823 ft | 403 kts | 253° |
| 2026-05-06 03:39 | 38.41188 | -106.43418 | 35770 ft | 404 kts | 253° |
| 2026-05-06 03:39 | 38.39616 | -106.50283 | 35742 ft | 405 kts | 253° |
| 2026-05-06 03:40 | 38.38031 | -106.57174 | 35759 ft | 406 kts | 253° |
| 2026-05-06 03:40 | 38.36431 | -106.64094 | 35787 ft | 408 kts | 253° |
| 2026-05-06 03:41 | 38.34826 | -106.71027 | 35803 ft | 409 kts | 253° |
| 2026-05-06 03:41 | 38.33489 | -106.76807 | 35814 ft | 410 kts | 253° |
| 2026-05-06 03:42 | 38.31865 | -106.83782 | 35820 ft | 411 kts | 253° |
| 2026-05-06 03:42 | 38.30232 | -106.90765 | 35822 ft | 412 kts | 253° |
| 2026-05-06 03:43 | 38.28592 | -106.97779 | 35812 ft | 413 kts | 253° |
| 2026-05-06 03:43 | 38.26941 | -107.04795 | 35801 ft | 414 kts | 253° |
| 2026-05-06 03:44 | 38.25275 | -107.11816 | 35781 ft | 415 kts | 253° |
| 2026-05-06 03:44 | 38.23590 | -107.18823 | 35767 ft | 416 kts | 253° |
| 2026-05-06 03:45 | 38.21907 | -107.25869 | 35765 ft | 417 kts | 253° |
| 2026-05-06 03:45 | 38.20248 | -107.32956 | 35766 ft | 418 kts | 253° |
| 2026-05-06 03:46 | 38.18567 | -107.40063 | 35770 ft | 419 kts | 253° |
| 2026-05-06 03:46 | 38.16869 | -107.47166 | 35771 ft | 421 kts | 253° |
| 2026-05-06 03:47 | 38.15170 | -107.54297 | 35782 ft | 422 kts | 253° |
| 2026-05-06 03:47 | 38.13462 | -107.61384 | 35829 ft | 423 kts | 253° |
| 2026-05-06 03:48 | 38.11740 | -107.68528 | 35887 ft | 424 kts | 253° |
| 2026-05-06 03:48 | 38.10020 | -107.75670 | 35934 ft | 425 kts | 253° |
| 2026-05-06 03:49 | 38.08276 | -107.82834 | 35973 ft | 425 kts | 253° |
| 2026-05-06 03:49 | 38.06541 | -107.89976 | 36008 ft | 425 kts | 253° |
| 2026-05-06 03:50 | 38.04787 | -107.97144 | 36016 ft | 426 kts | 252° |
| 2026-05-06 03:50 | 38.03023 | -108.04311 | 35988 ft | 426 kts | 253° |
| 2026-05-06 03:51 | 38.01265 | -108.11509 | 35946 ft | 427 kts | 253° |
| 2026-05-06 03:51 | 37.99498 | -108.18711 | 35885 ft | 428 kts | 253° |
| 2026-05-06 03:52 | 37.97702 | -108.25912 | 35827 ft | 429 kts | 252° |
| 2026-05-06 03:52 | 37.95884 | -108.33130 | 35764 ft | 430 kts | 253° |
| 2026-05-06 03:53 | 37.94112 | -108.40374 | 35725 ft | 431 kts | 253° |
| 2026-05-06 03:53 | 37.92319 | -108.47651 | 35722 ft | 432 kts | 253° |
| 2026-05-06 03:54 | 37.90494 | -108.54908 | 35711 ft | 433 kts | 252° |
| 2026-05-06 03:54 | 37.88680 | -108.62161 | 35708 ft | 433 kts | 253° |
| 2026-05-06 03:55 | 37.86846 | -108.69455 | 35710 ft | 434 kts | 252° |
| 2026-05-06 03:55 | 37.85011 | -108.76688 | 35704 ft | 435 kts | 253° |
| 2026-05-06 03:56 | 37.83181 | -108.83982 | 35694 ft | 435 kts | 253° |
| 2026-05-06 03:56 | 37.81426 | -108.91315 | 35693 ft | 436 kts | 256° |
| 2026-05-06 03:57 | 37.79920 | -108.98741 | 35699 ft | 436 kts | 256° |
| 2026-05-06 03:57 | 37.78389 | -109.06182 | 35697 ft | 437 kts | 256° |
| 2026-05-06 03:58 | 37.76848 | -109.13624 | 35719 ft | 438 kts | 256° |
| 2026-05-06 03:58 | 37.75312 | -109.21068 | 35775 ft | 439 kts | 256° |
| 2026-05-06 03:59 | 37.73763 | -109.28538 | 35812 ft | 439 kts | 256° |
| 2026-05-06 03:59 | 37.72212 | -109.35982 | 35851 ft | 440 kts | 256° |
| 2026-05-06 04:00 | 37.70638 | -109.43460 | 35885 ft | 441 kts | 256° |
| 2026-05-06 04:00 | 37.69069 | -109.50956 | 35903 ft | 441 kts | 256° |
| 2026-05-06 04:01 | 37.67496 | -109.58442 | 35905 ft | 442 kts | 256° |
| 2026-05-06 04:01 | 37.65898 | -109.65950 | 35417 ft | 442 kts | 255° |
| 2026-05-06 04:02 | 37.65089 | -109.69687 | 35998 ft | 440 kts | 255° |
| 2026-05-06 04:02 | 37.64251 | -109.73401 | 36119 ft | 440 kts | 254° |
| 2026-05-06 04:02 | 37.63384 | -109.77100 | 36248 ft | 440 kts | 253° |
| 2026-05-06 04:02 | 37.62484 | -109.80791 | 36387 ft | 440 kts | 253° |
| 2026-05-06 04:03 | 37.61553 | -109.84478 | 36532 ft | 440 kts | 252° |
| 2026-05-06 04:03 | 37.60592 | -109.88141 | 36679 ft | 439 kts | 252° |
| 2026-05-06 04:03 | 37.59605 | -109.91781 | 36825 ft | 438 kts | 251° |
| 2026-05-06 04:03 | 37.58605 | -109.95339 | 36978 ft | 436 kts | 250° |
| 2026-05-06 04:04 | 37.57567 | -109.98915 | 37144 ft | 427 kts | 250° |
| 2026-05-06 04:04 | 37.56773 | -110.02528 | 37080 ft | 429 kts | 262° |
| 2026-05-06 04:04 | 37.56502 | -110.06210 | 36898 ft | 430 kts | 264° |
| 2026-05-06 04:04 | 37.56126 | -110.09993 | 36646 ft | 432 kts | 261° |
| 2026-05-06 04:05 | 37.55564 | -110.13662 | 36400 ft | 433 kts | 257° |
| 2026-05-06 04:05 | 37.54853 | -110.17362 | 36143 ft | 436 kts | 256° |
| 2026-05-06 04:05 | 37.54068 | -110.21073 | 35900 ft | 438 kts | 255° |
| 2026-05-06 04:05 | 37.53263 | -110.24778 | 35650 ft | 442 kts | 255° |
| 2026-05-06 04:06 | 37.52448 | -110.28513 | 35401 ft | 443 kts | 256° |
| 2026-05-06 04:06 | 37.51626 | -110.32277 | 35157 ft | 446 kts | 256° |
| 2026-05-06 04:06 | 37.50800 | -110.36059 | 34913 ft | 448 kts | 256° |
| 2026-05-06 04:06 | 37.49969 | -110.39835 | 34668 ft | 450 kts | 256° |
| 2026-05-06 04:07 | 37.49138 | -110.43645 | 34426 ft | 452 kts | 256° |
| 2026-05-06 04:07 | 37.48286 | -110.47474 | 34191 ft | 455 kts | 256° |
| 2026-05-06 04:07 | 37.47440 | -110.51313 | 33961 ft | 457 kts | 256° |
| 2026-05-06 04:07 | 37.46588 | -110.55177 | 33719 ft | 458 kts | 256° |
| 2026-05-06 04:08 | 37.45737 | -110.59043 | 33449 ft | 458 kts | 256° |
| 2026-05-06 04:08 | 37.44886 | -110.62907 | 33186 ft | 459 kts | 256° |
| 2026-05-06 04:08 | 37.44031 | -110.66780 | 32919 ft | 459 kts | 256° |
| 2026-05-06 04:08 | 37.43171 | -110.70656 | 32648 ft | 460 kts | 256° |
| 2026-05-06 04:09 | 37.42307 | -110.74527 | 32384 ft | 459 kts | 256° |
| 2026-05-06 04:09 | 37.41443 | -110.78397 | 32128 ft | 460 kts | 256° |
| 2026-05-06 04:09 | 37.40584 | -110.82269 | 31866 ft | 460 kts | 256° |
| 2026-05-06 04:09 | 37.39738 | -110.86065 | 31665 ft | 460 kts | 256° |
| 2026-05-06 04:10 | 37.38000 | -110.93817 | 31643 ft | 461 kts | 256° |
| 2026-05-06 04:10 | 37.36239 | -111.01580 | 31667 ft | 461 kts | 256° |
| 2026-05-06 04:11 | 37.34504 | -111.09319 | 31677 ft | 460 kts | 256° |
| 2026-05-06 04:11 | 37.32753 | -111.17057 | 31683 ft | 460 kts | 256° |
| 2026-05-06 04:12 | 37.31004 | -111.24764 | 31694 ft | 459 kts | 256° |
| 2026-05-06 04:12 | 37.29242 | -111.32480 | 31698 ft | 459 kts | 256° |
| 2026-05-06 04:13 | 37.27490 | -111.40170 | 31717 ft | 458 kts | 256° |
| 2026-05-06 04:13 | 37.25729 | -111.47850 | 31729 ft | 458 kts | 255° |
| 2026-05-06 04:14 | 37.23949 | -111.55518 | 31735 ft | 458 kts | 255° |
| 2026-05-06 04:14 | 37.22179 | -111.63180 | 31738 ft | 458 kts | 255° |
| 2026-05-06 04:15 | 37.20417 | -111.70820 | 31740 ft | 458 kts | 256° |
| 2026-05-06 04:15 | 37.18475 | -111.78438 | 31740 ft | 459 kts | 253° |
| 2026-05-06 04:16 | 37.16434 | -111.86022 | 31758 ft | 459 kts | 253° |
| 2026-05-06 04:16 | 37.14382 | -111.93617 | 31773 ft | 460 kts | 253° |
| 2026-05-06 04:17 | 37.12331 | -112.01192 | 31793 ft | 459 kts | 253° |
| 2026-05-06 04:17 | 37.10279 | -112.08761 | 31811 ft | 458 kts | 253° |
| 2026-05-06 04:18 | 37.08224 | -112.16296 | 31826 ft | 457 kts | 252° |
| 2026-05-06 04:18 | 37.06160 | -112.23836 | 31834 ft | 457 kts | 252° |
| 2026-05-06 04:19 | 37.04110 | -112.31346 | 31835 ft | 456 kts | 252° |
| 2026-05-06 04:19 | 37.02052 | -112.38816 | 31833 ft | 452 kts | 252° |
| 2026-05-06 04:20 | 37.00005 | -112.46228 | 31842 ft | 450 kts | 252° |
| 2026-05-06 04:20 | 36.98319 | -112.52382 | 31839 ft | 451 kts | 252° |
| 2026-05-06 04:21 | 36.96268 | -112.59786 | 31863 ft | 449 kts | 252° |
| 2026-05-06 04:21 | 36.94224 | -112.67164 | 31899 ft | 449 kts | 252° |
| 2026-05-06 04:22 | 36.92175 | -112.74519 | 31935 ft | 448 kts | 252° |
| 2026-05-06 04:23 | 36.89106 | -112.85524 | 31979 ft | 446 kts | 252° |
| 2026-05-06 04:23 | 36.87055 | -112.92834 | 32003 ft | 446 kts | 252° |
| 2026-05-06 04:24 | 36.84993 | -113.00136 | 32005 ft | 443 kts | 252° |
| 2026-05-06 04:24 | 36.82956 | -113.07409 | 31987 ft | 444 kts | 252° |
| 2026-05-06 04:25 | 36.80932 | -113.14582 | 31709 ft | 440 kts | 252° |
| 2026-05-06 04:25 | 36.79908 | -113.18224 | 31391 ft | 440 kts | 252° |
| 2026-05-06 04:25 | 36.78884 | -113.21831 | 31113 ft | 440 kts | 252° |
| 2026-05-06 04:25 | 36.77880 | -113.25379 | 30851 ft | 439 kts | 251° |
| 2026-05-06 04:26 | 36.76860 | -113.28967 | 30585 ft | 435 kts | 251° |
| 2026-05-06 04:26 | 36.75852 | -113.32507 | 30311 ft | 435 kts | 251° |
| 2026-05-06 04:26 | 36.74844 | -113.36057 | 30080 ft | 434 kts | 251° |
| 2026-05-06 04:26 | 36.73826 | -113.39607 | 29836 ft | 434 kts | 251° |
| 2026-05-06 04:27 | 36.72816 | -113.43141 | 29544 ft | 430 kts | 251° |
| 2026-05-06 04:27 | 36.71802 | -113.46653 | 29257 ft | 429 kts | 251° |
| 2026-05-06 04:27 | 36.70812 | -113.50138 | 28982 ft | 427 kts | 251° |
| 2026-05-06 04:27 | 36.69823 | -113.53624 | 28600 ft | 426 kts | 251° |
| 2026-05-06 04:28 | 36.68829 | -113.57099 | 28025 ft | 422 kts | 251° |
| 2026-05-06 04:28 | 36.67847 | -113.60524 | 27429 ft | 419 kts | 251° |
| 2026-05-06 04:28 | 36.66880 | -113.63932 | 26831 ft | 417 kts | 251° |
| 2026-05-06 04:28 | 36.65909 | -113.67338 | 26208 ft | 415 kts | 251° |
| 2026-05-06 04:29 | 36.64937 | -113.70708 | 25609 ft | 413 kts | 251° |
| 2026-05-06 04:29 | 36.63976 | -113.74062 | 25045 ft | 411 kts | 251° |
| 2026-05-06 04:29 | 36.63012 | -113.77412 | 24474 ft | 409 kts | 250° |
| 2026-05-06 04:29 | 36.62057 | -113.80712 | 23886 ft | 408 kts | 250° |
| 2026-05-06 04:30 | 36.61098 | -113.84033 | 23288 ft | 406 kts | 250° |
| 2026-05-06 04:30 | 36.60155 | -113.87328 | 22633 ft | 404 kts | 250° |
| 2026-05-06 04:30 | 36.59190 | -113.90603 | 21985 ft | 400 kts | 247° |
| 2026-05-06 04:30 | 36.57825 | -113.93583 | 21372 ft | 395 kts | 234° |
| 2026-05-06 04:31 | 36.56173 | -113.96278 | 20826 ft | 388 kts | 232° |
| 2026-05-06 04:31 | 36.54522 | -113.98906 | 20279 ft | 382 kts | 232° |
| 2026-05-06 04:31 | 36.52897 | -114.01494 | 19767 ft | 376 kts | 232° |
| 2026-05-06 04:31 | 36.51301 | -114.04030 | 19259 ft | 370 kts | 232° |
| 2026-05-06 04:32 | 36.49741 | -114.06545 | 18773 ft | 365 kts | 232° |
| 2026-05-06 04:32 | 36.48204 | -114.09025 | 18306 ft | 359 kts | 232° |
| 2026-05-06 04:32 | 36.46683 | -114.11458 | 17817 ft | 354 kts | 232° |
| 2026-05-06 04:32 | 36.45172 | -114.13889 | 17323 ft | 348 kts | 232° |
| 2026-05-06 04:33 | 36.43702 | -114.16250 | 16831 ft | 344 kts | 232° |
| 2026-05-06 04:33 | 36.42237 | -114.18594 | 16391 ft | 344 kts | 232° |
| 2026-05-06 04:33 | 36.40773 | -114.20932 | 15953 ft | 343 kts | 232° |
| 2026-05-06 04:33 | 36.39314 | -114.23268 | 15542 ft | 340 kts | 232° |
| 2026-05-06 04:34 | 36.37879 | -114.25540 | 15301 ft | 328 kts | 232° |
| 2026-05-06 04:34 | 36.36490 | -114.27707 | 15118 ft | 315 kts | 232° |
| 2026-05-06 04:34 | 36.35150 | -114.29795 | 14867 ft | 305 kts | 231° |
| 2026-05-06 04:34 | 36.33827 | -114.31845 | 14279 ft | 308 kts | 232° |
| 2026-05-06 04:35 | 36.32502 | -114.33932 | 13788 ft | 307 kts | 232° |
| 2026-05-06 04:35 | 36.31190 | -114.35996 | 13361 ft | 303 kts | 232° |
| 2026-05-06 04:35 | 36.29887 | -114.38038 | 12920 ft | 300 kts | 232° |
| 2026-05-06 04:35 | 36.28606 | -114.40050 | 12592 ft | 296 kts | 232° |
| 2026-05-06 04:36 | 36.27329 | -114.42052 | 12205 ft | 295 kts | 231° |
| 2026-05-06 04:36 | 36.26057 | -114.44049 | 11801 ft | 294 kts | 231° |
| 2026-05-06 04:36 | 36.24792 | -114.46032 | 11395 ft | 292 kts | 231° |
| 2026-05-06 04:36 | 36.23518 | -114.47992 | 11004 ft | 291 kts | 230° |
| 2026-05-06 04:37 | 36.22267 | -114.49894 | 10632 ft | 288 kts | 230° |
| 2026-05-06 04:37 | 36.21006 | -114.51820 | 10318 ft | 287 kts | 230° |
| 2026-05-06 04:37 | 36.19749 | -114.53753 | 10092 ft | 283 kts | 230° |
| 2026-05-06 04:37 | 36.18517 | -114.55636 | 9825 ft | 281 kts | 230° |
| 2026-05-06 04:38 | 36.17282 | -114.57517 | 9468 ft | 281 kts | 229° |
| 2026-05-06 04:38 | 36.16049 | -114.59400 | 9067 ft | 282 kts | 230° |
| 2026-05-06 04:38 | 36.14822 | -114.61275 | 8659 ft | 279 kts | 230° |
| 2026-05-06 04:38 | 36.13607 | -114.63125 | 8283 ft | 277 kts | 229° |
| 2026-05-06 04:39 | 36.12406 | -114.64954 | 8022 ft | 268 kts | 230° |
| 2026-05-06 04:39 | 36.11267 | -114.66702 | 7967 ft | 252 kts | 230° |
| 2026-05-06 04:39 | 36.10204 | -114.68327 | 7969 ft | 234 kts | 230° |
| 2026-05-06 04:39 | 36.09191 | -114.69872 | 7984 ft | 236 kts | 229° |
| 2026-05-06 04:40 | 36.08151 | -114.71445 | 7993 ft | 235 kts | 230° |
| 2026-05-06 04:40 | 36.07351 | -114.73187 | 7989 ft | 239 kts | 253° |
| 2026-05-06 04:40 | 36.07193 | -114.75120 | 7944 ft | 238 kts | 268° |
| 2026-05-06 04:40 | 36.07225 | -114.77049 | 7837 ft | 226 kts | 268° |
| 2026-05-06 04:41 | 36.07269 | -114.78755 | 7772 ft | 215 kts | 269° |
| 2026-05-06 04:41 | 36.07332 | -114.80578 | 7466 ft | 211 kts | 270° |
| 2026-05-06 04:41 | 36.07378 | -114.82375 | 7087 ft | 209 kts | 267° |
| 2026-05-06 04:41 | 36.07384 | -114.84171 | 6700 ft | 208 kts | 266° |
| 2026-05-06 04:42 | 36.07384 | -114.85711 | 6382 ft | 208 kts | 267° |
| 2026-05-06 04:42 | 36.07383 | -114.87497 | 6061 ft | 207 kts | 267° |
| 2026-05-06 04:42 | 36.07382 | -114.89278 | 5775 ft | 205 kts | 268° |
| 2026-05-06 04:42 | 36.07381 | -114.91027 | 5508 ft | 202 kts | 267° |
| 2026-05-06 04:43 | 36.07379 | -114.92753 | 5226 ft | 201 kts | 268° |
| 2026-05-06 04:43 | 36.07379 | -114.94424 | 5010 ft | 184 kts | 268° |
| 2026-05-06 04:43 | 36.07379 | -114.95869 | 4858 ft | 149 kts | 267° |
| 2026-05-06 04:43 | 36.07377 | -114.97059 | 4612 ft | 134 kts | 267° |
| 2026-05-06 04:44 | 36.07376 | -114.98182 | 4404 ft | 133 kts | 268° |
| 2026-05-06 04:44 | 36.07375 | -114.99331 | 4217 ft | 134 kts | 267° |
| 2026-05-06 04:44 | 36.07374 | -115.00472 | 4036 ft | 133 kts | 267° |
| 2026-05-06 04:44 | 36.07373 | -115.01602 | 3868 ft | 132 kts | 266° |
| 2026-05-06 04:45 | 36.07372 | -115.02704 | 3699 ft | 132 kts | 266° |
| 2026-05-06 04:45 | 36.07372 | -115.03844 | 3515 ft | 131 kts | 266° |
| 2026-05-06 04:45 | 36.07371 | -115.04957 | 3351 ft | 130 kts | 267° |
| 2026-05-06 04:45 | 36.07375 | -115.06078 | 3166 ft | 132 kts | 266° |
| 2026-05-06 04:46 | 36.07388 | -115.07212 | 3055 ft | 133 kts | 266° |
| 2026-05-06 04:46 | 36.07386 | -115.08347 | 2866 ft | 134 kts | 263° |
| 2026-05-06 04:46 | 36.07356 | -115.09444 | 2711 ft | 134 kts | 268° |
| 2026-05-06 04:46 | 36.07380 | -115.10630 | 2526 ft | 135 kts | 265° |
| 2026-05-06 04:47 | 36.07364 | -115.11780 | 2392 ft | 134 kts | 269° |
| 2026-05-06 04:47 | 36.07368 | -115.12909 | 2219 ft | 132 kts | 265° |
| 2026-05-06 04:47 | 36.07358 | -115.13999 | 2195 ft | 120 kts | 270° |
| 2026-05-06 04:47 | 36.07362 | -115.14668 | 2195 ft | 39 kts | 270° |
| 2026-05-06 04:48 | 36.07374 | -115.14849 | 2197 ft | 8 kts | 302° |
| 2026-05-06 04:48 | 36.07414 | -115.14926 | 2196 ft | 14 kts | 302° |
| 2026-05-06 04:48 | 36.07476 | -115.15048 | 2195 ft | 20 kts | 302° |
| 2026-05-06 04:48 | 36.07596 | -115.15166 | 2197 ft | 26 kts | 330° |
| 2026-05-06 04:49 | 36.07764 | -115.15264 | 2197 ft | 12 kts | 334° |
| 2026-05-06 04:49 | 36.07813 | -115.15295 | 2195 ft | 9 kts | 333° |
| 2026-05-06 04:49 | 36.07871 | -115.15276 | 2194 ft | 11 kts | 77° |
| 2026-05-06 04:49 | 36.07878 | -115.15169 | 2194 ft | 14 kts | 91° |
| 2026-05-06 04:50 | 36.07875 | -115.15044 | 2194 ft | 16 kts | 96° |
| 2026-05-06 04:50 | 36.07864 | -115.14900 | 2194 ft | 18 kts | 95° |
| 2026-05-06 04:50 | 36.07853 | -115.14741 | 2193 ft | 20 kts | 95° |
| 2026-05-06 04:50 | 36.07841 | -115.14565 | 2195 ft | 21 kts | 95° |
| 2026-05-06 04:51 | 36.07829 | -115.14378 | 2193 ft | 22 kts | 94° |
| 2026-05-06 04:51 | 36.07830 | -115.14190 | 2195 ft | 22 kts | 70° |
| 2026-05-06 04:51 | 36.07968 | -115.14146 | 2194 ft | 19 kts | 7° |
| 2026-05-06 04:51 | 36.08089 | -115.14157 | 2194 ft | 15 kts | 357° |
| 2026-05-06 04:52 | 36.08170 | -115.14159 | 2195 ft | 9 kts | 0° |
| 2026-05-06 04:52 | 36.08231 | -115.14158 | 2195 ft | 10 kts | 0° |
| 2026-05-06 04:52 | 36.08303 | -115.14136 | 2193 ft | 12 kts | 31° |
| 2026-05-06 04:52 | 36.08352 | -115.14080 | 2194 ft | 9 kts | 43° |
| 2026-05-06 04:53 | 36.08401 | -115.14021 | 2193 ft | 11 kts | 46° |
| 2026-05-06 04:53 | 36.08415 | -115.13926 | 2195 ft | 9 kts | 87° |
| 2026-05-06 04:53 | 36.08417 | -115.13858 | 2196 ft | 0 kts | 90° |
| 2026-05-06 04:53 | 36.08417 | -115.13856 | 2196 ft | 1 kts | 93° |
| 2026-05-06 04:54 | 36.08411 | -115.13835 | 2194 ft | 4 kts | 123° |
| 2026-05-06 04:54 | 36.08380 | -115.13834 | 2195 ft | 6 kts | 216° |
| 2026-05-06 04:54 | 36.08348 | -115.13875 | 2197 ft | 6 kts | 224° |
| 2026-05-06 04:54 | 36.08343 | -115.13880 | 2194 ft | 0 kts | 222° |